createdAt,value
2018-05-06T00:02:12.512Z,5.40
2018-05-06T00:04:42.693Z,5.53
2018-05-06T00:07:12.954Z,5.37
2018-05-06T00:09:43.123Z,5.83
2018-05-06T00:12:13.326Z,5.50
2018-05-06T00:14:43.286Z,5.43
2018-05-06T00:17:13.347Z,5.80
2018-05-06T00:19:43.524Z,5.73
2018-05-06T00:22:13.769Z,6.13
2018-05-06T00:24:44.077Z,7.30
2018-05-06T00:27:14.367Z,6.83
2018-05-06T00:29:44.618Z,6.63
2018-05-06T00:32:14.949Z,6.63
2018-05-06T00:34:45.203Z,5.80
2018-05-06T00:37:15.460Z,5.90
2018-05-06T00:39:45.683Z,6.30
2018-05-06T00:42:15.923Z,6.23
2018-05-06T00:44:46.078Z,6.10
2018-05-06T00:47:16.216Z,6.53
2018-05-06T00:49:46.349Z,6.57
2018-05-06T00:52:16.695Z,6.43
2018-05-06T00:54:46.936Z,8.00
2018-05-06T00:57:17.159Z,8.43
2018-05-06T00:59:48.369Z,8.63
2018-05-06T01:02:19.760Z,7.80
2018-05-06T01:04:50.023Z,7.77
2018-05-06T01:07:20.423Z,7.77
2018-05-06T01:09:50.647Z,8.57
2018-05-06T01:12:21.073Z,8.30
2018-05-06T01:14:51.213Z,8.80
2018-05-06T01:17:21.504Z,9.63
2018-05-06T01:19:51.525Z,11.13
2018-05-06T01:22:21.788Z,10.30
2018-05-06T01:24:52.009Z,10.80
2018-05-06T01:27:22.160Z,11.07
2018-05-06T01:29:52.370Z,10.63
2018-05-06T01:32:22.782Z,10.83
2018-05-06T01:34:53.029Z,10.23
2018-05-06T01:37:23.293Z,10.13
2018-05-06T01:39:53.546Z,10.40
2018-05-06T01:42:23.682Z,10.43
2018-05-06T01:44:53.965Z,10.27
2018-05-06T01:47:24.248Z,11.10
2018-05-06T01:49:54.524Z,10.13
2018-05-06T01:52:24.685Z,10.63
2018-05-06T01:54:54.968Z,10.63
2018-05-06T01:57:25.332Z,10.60
2018-05-06T01:59:55.630Z,10.20
2018-05-06T02:02:25.930Z,10.67
2018-05-06T02:04:56.137Z,10.47
2018-05-06T02:07:26.231Z,11.23
2018-05-06T02:09:56.511Z,10.60
2018-05-06T02:12:26.894Z,10.13
2018-05-06T02:14:57.220Z,10.10
2018-05-06T02:17:27.492Z,10.30
2018-05-06T02:19:57.653Z,10.37
2018-05-06T02:22:27.996Z,9.80
2018-05-06T02:24:58.146Z,10.17
2018-05-06T02:27:28.427Z,9.83
2018-05-06T02:29:58.510Z,10.17
2018-05-06T02:32:28.730Z,9.63
2018-05-06T02:34:58.922Z,9.37
2018-05-06T02:37:29.091Z,9.10
2018-05-06T02:39:59.389Z,9.03
2018-05-06T02:42:29.650Z,9.53
2018-05-06T02:44:59.855Z,10.00
2018-05-06T02:47:31.139Z,8.77
2018-05-06T02:50:01.513Z,9.43
2018-05-06T02:52:31.704Z,9.43
2018-05-06T02:55:01.890Z,9.10
2018-05-06T02:57:32.137Z,9.17
2018-05-06T03:00:02.220Z,9.30
2018-05-06T03:02:32.487Z,9.40
2018-05-06T03:05:02.585Z,8.50
2018-05-06T03:07:32.264Z,8.57
2018-05-06T03:10:01.900Z,8.73
2018-05-06T03:12:31.453Z,8.70
2018-05-06T03:15:02.151Z,9.27
2018-05-06T03:17:31.835Z,9.00
2018-05-06T03:20:02.513Z,7.73
2018-05-06T03:22:32.033Z,7.80
2018-05-06T03:25:01.687Z,8.03
2018-05-06T03:27:31.457Z,7.47
2018-05-06T03:30:00.986Z,7.43
2018-05-06T03:32:30.639Z,7.40
2018-05-06T03:35:00.547Z,7.27
2018-05-06T03:37:30.258Z,7.37
2018-05-06T03:39:59.979Z,7.67
2018-05-06T03:42:29.613Z,7.83
2018-05-06T03:44:59.300Z,7.53
2018-05-06T03:47:29.012Z,7.20
2018-05-06T03:49:58.807Z,7.23
2018-05-06T03:52:28.547Z,7.80
2018-05-06T03:54:58.317Z,7.90
2018-05-06T03:58:38.380Z,7.57
2018-05-06T04:01:08.125Z,7.73
2018-05-06T04:03:37.807Z,7.60
2018-05-06T04:06:07.621Z,7.53
2018-05-06T04:08:37.390Z,8.13
2018-05-06T04:11:07.161Z,8.07
2018-05-06T04:13:36.772Z,8.07
2018-05-06T04:16:06.431Z,8.00
2018-05-06T04:18:36.185Z,7.90
2018-05-06T04:21:05.893Z,7.43
2018-05-06T04:23:36.709Z,7.67
2018-05-06T04:26:06.405Z,6.50
2018-05-06T04:28:36.248Z,7.53
2018-05-06T04:31:06.027Z,7.43
2018-05-06T04:33:35.609Z,7.53
2018-05-06T04:36:05.339Z,7.47
2018-05-06T04:38:35.130Z,6.97
2018-05-06T04:41:04.836Z,7.13
2018-05-06T04:43:34.602Z,7.50
2018-05-06T04:46:04.283Z,7.10
2018-05-06T04:48:33.892Z,6.63
2018-05-06T04:51:03.654Z,6.63
2018-05-06T04:53:33.473Z,6.53
2018-05-06T04:56:03.264Z,5.63
2018-05-06T04:58:32.875Z,6.97
2018-05-06T05:01:02.538Z,6.43
2018-05-06T05:03:32.309Z,6.40
2018-05-06T05:06:02.052Z,6.00
2018-05-06T05:08:31.786Z,6.03
2018-05-06T05:11:01.621Z,5.47
2018-05-06T05:13:31.328Z,5.53
2018-05-06T05:16:00.833Z,5.33
2018-05-06T05:18:30.579Z,4.73
2018-05-06T05:21:00.270Z,4.77
2018-05-06T05:23:29.864Z,4.17
2018-05-06T05:25:59.603Z,4.27
2018-05-06T05:28:29.263Z,4.50
2018-05-06T05:30:59.004Z,4.07
2018-05-06T05:33:28.706Z,3.60
2018-05-06T05:35:58.506Z,4.43
2018-05-06T05:38:28.299Z,4.37
2018-05-06T05:40:58.059Z,3.53
2018-05-06T05:43:27.778Z,3.97
2018-05-06T05:45:57.631Z,3.70
2018-05-06T05:48:27.284Z,3.20
2018-05-06T05:50:57.002Z,3.37
2018-05-06T05:53:26.724Z,3.27
2018-05-06T05:55:56.365Z,3.43
2018-05-06T05:58:26.086Z,3.60
2018-05-06T06:00:55.796Z,3.57
2018-05-06T06:03:25.556Z,3.70
2018-05-06T06:05:55.266Z,3.40
2018-05-06T06:08:25.218Z,3.63
2018-05-06T06:10:54.879Z,3.30
2018-05-06T06:13:24.588Z,3.40
2018-05-06T06:15:54.287Z,3.27
2018-05-06T06:18:23.960Z,3.50
2018-05-06T06:20:53.751Z,3.90
2018-05-06T06:23:24.442Z,3.93
2018-05-06T06:25:54.121Z,3.63
2018-05-06T06:28:23.843Z,3.90
2018-05-06T06:30:53.461Z,3.53
2018-05-06T06:33:23.415Z,3.80
2018-05-06T06:35:53.036Z,3.07
2018-05-06T06:38:22.787Z,3.60
2018-05-06T06:40:52.549Z,3.70
2018-05-06T06:43:22.265Z,3.87
2018-05-06T06:45:51.906Z,4.10
2018-05-06T06:48:21.680Z,3.80
2018-05-06T06:50:51.369Z,3.53
2018-05-06T06:53:21.151Z,3.63
2018-05-06T06:55:51.068Z,3.80
2018-05-06T06:58:20.885Z,3.20
2018-05-06T07:00:50.503Z,3.67
2018-05-06T07:03:20.262Z,3.47
2018-05-06T07:05:50.044Z,3.57
2018-05-06T07:08:19.847Z,3.47
2018-05-06T07:10:49.623Z,3.33
2018-05-06T07:13:19.365Z,3.50
2018-05-06T07:15:49.021Z,3.40
2018-05-06T07:18:18.869Z,3.67
2018-05-06T07:20:48.443Z,3.57
2018-05-06T07:23:18.413Z,3.60
2018-05-06T07:25:48.171Z,3.60
2018-05-06T07:28:17.790Z,3.90
2018-05-06T07:30:47.473Z,3.87
2018-05-06T07:33:17.105Z,3.50
2018-05-06T07:35:46.832Z,3.50
2018-05-06T07:38:16.625Z,3.50
2018-05-06T07:40:46.349Z,3.30
2018-05-06T07:43:15.937Z,3.50
2018-05-06T07:45:45.657Z,3.10
2018-05-06T07:48:15.355Z,3.60
2018-05-06T07:50:45.046Z,3.40
2018-05-06T07:53:14.658Z,3.27
2018-05-06T07:55:44.403Z,3.13
2018-05-06T07:58:14.123Z,2.87
2018-05-06T08:00:43.720Z,2.87
2018-05-06T08:03:13.533Z,3.10
2018-05-06T08:05:43.063Z,2.80
2018-05-06T08:08:12.815Z,3.20
2018-05-06T08:10:42.661Z,2.90
2018-05-06T08:13:12.466Z,3.37
2018-05-06T08:15:42.208Z,3.50
2018-05-06T08:18:11.859Z,3.03
2018-05-06T08:20:41.597Z,3.17
2018-05-06T08:23:11.202Z,2.77
2018-05-06T08:25:40.887Z,2.30
2018-05-06T08:28:11.728Z,2.50
2018-05-06T08:30:41.458Z,2.23
2018-05-06T08:33:11.254Z,2.57
2018-05-06T08:35:40.825Z,2.07
2018-05-06T08:38:10.445Z,2.57
2018-05-06T08:40:40.206Z,2.20
2018-05-06T08:43:11.025Z,2.00
2018-05-06T08:45:40.864Z,2.30
2018-05-06T08:48:10.514Z,2.20
2018-05-06T08:50:40.317Z,2.20
2018-05-06T08:53:09.958Z,3.00
2018-05-06T08:55:39.477Z,2.60
2018-05-06T08:58:09.204Z,2.90
2018-05-06T09:00:38.898Z,3.10
2018-05-06T09:03:08.575Z,3.07
2018-05-06T09:05:38.314Z,3.10
2018-05-06T09:08:08.883Z,2.90
2018-05-06T09:10:38.626Z,3.20
2018-05-06T09:13:08.214Z,2.80
2018-05-06T09:15:38.004Z,3.13
2018-05-06T09:18:08.706Z,3.00
2018-05-06T09:20:38.357Z,2.60
2018-05-06T09:23:08.319Z,2.67
2018-05-06T09:25:38.068Z,3.13
2018-05-06T09:28:07.840Z,2.90
2018-05-06T09:30:37.763Z,3.13
2018-05-06T09:33:07.493Z,2.67
2018-05-06T09:35:37.313Z,2.60
2018-05-06T09:38:07.025Z,2.83
2018-05-06T09:40:36.745Z,2.73
2018-05-06T09:43:06.123Z,2.90
2018-05-06T09:45:35.796Z,2.70
2018-05-06T09:48:05.525Z,3.13
2018-05-06T09:50:35.405Z,2.73
2018-05-06T09:53:05.198Z,2.70
2018-05-06T09:55:34.986Z,2.77
2018-05-06T09:58:04.843Z,2.40
2018-05-06T10:00:34.611Z,2.40
2018-05-06T10:03:04.471Z,2.50
2018-05-06T10:05:34.092Z,2.57
2018-05-06T10:08:03.829Z,2.50
2018-05-06T10:10:33.622Z,2.57
2018-05-06T10:13:03.276Z,2.10
2018-05-06T10:15:32.868Z,2.67
2018-05-06T10:18:02.634Z,2.73
2018-05-06T10:20:32.395Z,2.40
2018-05-06T10:23:02.089Z,2.10
2018-05-06T10:25:31.897Z,2.10
2018-05-06T10:28:01.589Z,2.20
2018-05-06T10:30:31.391Z,2.30
2018-05-06T10:33:01.041Z,2.53
2018-05-06T10:35:31.853Z,2.10
2018-05-06T10:38:01.550Z,1.87
2018-05-06T10:40:31.295Z,2.20
2018-05-06T10:43:01.014Z,2.00
2018-05-06T10:45:30.852Z,1.97
2018-05-06T10:48:00.506Z,2.10
2018-05-06T10:50:30.237Z,2.17
2018-05-06T10:52:59.843Z,2.10
2018-05-06T10:55:29.638Z,1.97
2018-05-06T10:57:59.280Z,2.20
2018-05-06T11:00:28.940Z,2.10
2018-05-06T11:02:58.775Z,2.17
2018-05-06T11:05:28.452Z,2.33
2018-05-06T11:07:58.175Z,2.60
2018-05-06T11:10:27.988Z,2.37
2018-05-06T11:12:57.645Z,1.90
2018-05-06T11:15:27.243Z,2.17
2018-05-06T11:17:56.904Z,2.00
2018-05-06T11:20:26.529Z,1.87
2018-05-06T11:22:58.372Z,2.00
2018-05-06T11:25:27.988Z,1.80
2018-05-06T11:27:57.720Z,1.87
2018-05-06T11:30:27.573Z,1.80
2018-05-06T11:32:57.243Z,1.97
2018-05-06T11:35:26.959Z,1.80
2018-05-06T11:37:56.721Z,2.10
2018-05-06T11:40:26.331Z,1.93
2018-05-06T11:42:55.997Z,2.07
2018-05-06T11:45:25.853Z,2.07
2018-05-06T11:47:55.533Z,2.20
2018-05-06T11:50:25.267Z,2.20
2018-05-06T11:52:55.158Z,2.00
2018-05-06T11:55:24.804Z,1.90
2018-05-06T11:57:54.526Z,1.95
2018-05-06T12:00:24.150Z,1.80
2018-05-06T12:02:54.050Z,1.98
2018-05-06T12:05:23.851Z,2.12
2018-05-06T12:07:53.601Z,1.75
2018-05-06T12:10:24.269Z,1.70
2018-05-06T12:12:54.080Z,1.77
2018-05-06T12:15:23.742Z,2.05
2018-05-06T12:17:53.554Z,1.80
2018-05-06T12:20:23.212Z,1.70
2018-05-06T12:22:53.115Z,1.70
2018-05-06T12:25:22.957Z,1.90
2018-05-06T12:27:52.758Z,2.08
2018-05-06T12:30:22.639Z,2.12
2018-05-06T12:32:52.328Z,1.80
2018-05-06T12:35:23.060Z,1.80
2018-05-06T12:37:52.780Z,2.20
2018-05-06T12:40:22.482Z,1.70
2018-05-06T12:42:52.146Z,1.77
2018-05-06T12:45:21.866Z,2.08
2018-05-06T12:47:51.704Z,1.85
2018-05-06T12:50:21.504Z,1.70
2018-05-06T12:52:51.266Z,2.08
2018-05-06T12:55:21.045Z,1.80
2018-05-06T12:57:50.868Z,1.77
2018-05-06T13:00:20.569Z,1.67
2018-05-06T13:02:50.427Z,1.50
2018-05-06T13:05:20.071Z,1.77
2018-05-06T13:07:49.800Z,1.65
2018-05-06T13:10:19.791Z,1.60
2018-05-06T13:12:49.553Z,1.45
2018-05-06T13:15:19.290Z,1.90
2018-05-06T13:17:49.064Z,2.10
2018-05-06T13:20:18.906Z,2.00
2018-05-06T13:22:48.767Z,1.70
2018-05-06T13:25:18.317Z,1.75
2018-05-06T13:27:48.278Z,1.72
2018-05-06T13:30:17.908Z,2.00
2018-05-06T13:32:47.665Z,1.57
2018-05-06T13:35:17.420Z,1.60
2018-05-06T13:37:47.009Z,1.65
2018-05-06T13:40:16.800Z,1.60
2018-05-06T13:42:46.801Z,1.72
2018-05-06T13:45:16.540Z,1.50
2018-05-06T13:47:46.513Z,1.50
2018-05-06T13:50:16.242Z,1.70
2018-05-06T13:52:45.973Z,1.30
2018-05-06T13:55:15.775Z,1.45
2018-05-06T13:57:45.804Z,1.47
2018-05-06T14:00:15.547Z,2.00
2018-05-06T14:02:45.239Z,1.70
2018-05-06T14:05:15.056Z,1.90
2018-05-06T14:07:44.833Z,1.60
2018-05-06T14:10:14.472Z,1.50
2018-05-06T14:12:44.338Z,1.80
2018-05-06T14:15:14.020Z,1.70
2018-05-06T14:17:43.830Z,1.55
2018-05-06T14:20:13.645Z,1.42
2018-05-06T14:22:43.355Z,1.60
2018-05-06T14:25:13.020Z,1.70
2018-05-06T14:27:42.787Z,2.00
2018-05-06T14:30:12.572Z,1.80
2018-05-06T14:32:42.278Z,1.80
2018-05-06T14:35:12.147Z,1.77
2018-05-06T14:37:41.792Z,1.70
2018-05-06T14:43:20.830Z,1.80
2018-05-06T14:45:50.572Z,1.95
2018-05-06T14:48:20.442Z,1.72
2018-05-06T14:50:51.095Z,1.62
2018-05-06T14:53:20.753Z,2.00
2018-05-06T14:55:50.547Z,2.17
2018-05-06T14:58:20.253Z,1.77
2018-05-06T15:00:50.895Z,1.90
2018-05-06T15:03:20.706Z,1.90
2018-05-06T15:05:50.428Z,1.70
2018-05-06T15:08:21.087Z,2.00
2018-05-06T15:10:50.911Z,2.20
2018-05-06T15:13:20.610Z,2.10
2018-05-06T15:15:50.313Z,2.07
2018-05-06T15:18:20.060Z,2.07
2018-05-06T15:20:49.730Z,2.10
2018-05-06T15:23:19.533Z,2.00
2018-05-06T15:25:49.233Z,2.13
2018-05-06T15:28:19.054Z,2.00
2018-05-06T15:30:48.789Z,1.80
2018-05-06T15:33:18.798Z,2.20
2018-05-06T15:35:48.527Z,2.20
2018-05-06T15:38:18.379Z,1.90
2018-05-06T15:40:48.088Z,2.10
2018-05-06T15:43:17.900Z,1.87
2018-05-06T15:45:47.644Z,2.00
2018-05-06T15:48:17.302Z,2.17
2018-05-06T15:50:47.101Z,2.00
2018-05-06T15:53:16.816Z,1.90
2018-05-06T15:55:46.607Z,1.90
2018-05-06T15:58:16.440Z,1.52
2018-05-06T16:00:46.154Z,1.80
2018-05-06T16:03:26.827Z,1.80
2018-05-06T16:05:56.469Z,1.80
2018-05-06T16:08:26.308Z,1.82
2018-05-06T16:10:55.979Z,1.65
2018-05-06T16:13:25.671Z,1.82
2018-05-06T16:15:55.390Z,2.50
2018-05-06T16:18:24.971Z,1.82
2018-05-06T16:20:54.652Z,1.90
2018-05-06T16:23:25.483Z,2.77
2018-05-06T16:25:55.145Z,1.90
2018-05-06T16:28:24.825Z,2.12
2018-05-06T16:30:54.475Z,1.85
2018-05-06T16:33:24.374Z,1.47
2018-05-06T16:35:54.127Z,2.08
2018-05-06T16:38:24.019Z,2.00
2018-05-06T16:40:53.757Z,1.85
2018-05-06T16:43:23.438Z,1.62
2018-05-06T16:45:53.318Z,2.10
2018-05-06T16:48:23.028Z,1.95
2018-05-06T16:50:52.903Z,1.90
2018-05-06T16:53:22.532Z,1.85
2018-05-06T16:55:52.615Z,1.77
2018-05-06T16:58:22.172Z,1.80
2018-05-06T17:00:51.982Z,1.90
2018-05-06T17:03:21.879Z,1.75
2018-05-06T17:05:51.806Z,1.75
2018-05-06T17:08:21.730Z,1.85
2018-05-06T17:10:51.309Z,2.12
2018-05-06T17:13:20.977Z,2.10
2018-05-06T17:15:50.750Z,2.08
2018-05-06T17:18:20.573Z,2.20
2018-05-06T17:20:50.430Z,2.40
2018-05-06T17:23:20.132Z,2.10
2018-05-06T17:25:49.821Z,2.13
2018-05-06T17:28:19.604Z,2.37
2018-05-06T17:30:49.114Z,2.40
2018-05-06T17:33:19.117Z,2.20
2018-05-06T17:35:48.854Z,2.33
2018-05-06T17:38:18.613Z,2.40
2018-05-06T17:40:48.311Z,2.07
2018-05-06T17:43:18.129Z,2.50
2018-05-06T17:45:47.739Z,2.40
2018-05-06T17:48:17.487Z,2.27
2018-05-06T17:50:47.273Z,2.27
2018-05-06T17:53:16.999Z,2.57
2018-05-06T17:55:46.946Z,2.40
2018-05-06T17:58:16.738Z,2.83
2018-05-06T18:00:46.514Z,2.60
2018-05-06T18:03:16.232Z,2.70
2018-05-06T18:05:46.065Z,2.50
2018-05-06T18:08:15.857Z,3.10
2018-05-06T18:10:45.566Z,3.20
2018-05-06T18:13:15.265Z,3.57
2018-05-06T18:15:45.031Z,3.30
2018-05-06T18:18:14.696Z,3.83
2018-05-06T18:20:44.618Z,4.37
2018-05-06T18:23:14.287Z,7.03
2018-05-06T18:25:43.921Z,7.10
2018-05-06T18:28:13.743Z,6.97
2018-05-06T18:30:43.435Z,10.57
2018-05-06T18:33:13.129Z,10.40
2018-05-06T18:35:42.876Z,10.30
2018-05-06T18:38:12.624Z,8.67
2018-05-06T18:40:42.458Z,4.67
2018-05-06T18:43:12.266Z,3.30
2018-05-06T18:45:41.985Z,3.27
2018-05-06T18:48:11.699Z,4.93
2018-05-06T18:50:41.389Z,5.57
2018-05-06T18:53:11.268Z,5.27
2018-05-06T18:55:40.923Z,5.10
2018-05-06T18:58:10.651Z,4.67
2018-05-06T19:00:40.362Z,5.60
2018-05-06T19:03:10.173Z,4.57
2018-05-06T19:05:39.906Z,4.87
2018-05-06T19:08:09.786Z,4.83
2018-05-06T19:10:39.878Z,5.40
2018-05-06T19:13:09.693Z,6.27
2018-05-06T19:15:39.669Z,5.67
2018-05-06T19:18:09.408Z,5.10
2018-05-06T19:20:39.097Z,5.23
2018-05-06T19:23:08.899Z,5.77
2018-05-06T19:25:38.723Z,5.67
2018-05-06T19:28:08.623Z,5.97
2018-05-06T19:30:38.634Z,5.17
2018-05-06T19:33:08.400Z,5.83
2018-05-06T19:35:38.263Z,5.60
2018-05-06T19:38:08.386Z,5.93
2018-05-06T19:40:38.116Z,6.50
2018-05-06T19:43:07.775Z,5.93
2018-05-06T19:45:37.560Z,5.60
2018-05-06T19:48:07.337Z,6.43
2018-05-06T19:50:37.090Z,6.47
2018-05-06T19:53:06.810Z,6.07
2018-05-06T19:55:36.661Z,5.50
2018-05-06T19:58:06.362Z,6.50
2018-05-06T20:00:36.044Z,6.50
2018-05-06T20:03:05.912Z,7.60
2018-05-06T20:05:35.583Z,8.10
2018-05-06T20:08:05.423Z,9.23
2018-05-06T20:10:35.217Z,7.90
2018-05-06T20:13:05.016Z,5.57
2018-05-06T20:15:34.893Z,5.17
2018-05-06T20:18:04.717Z,4.90
2018-05-06T20:20:34.509Z,4.63
2018-05-06T20:23:04.290Z,5.13
2018-05-06T20:25:33.977Z,5.17
2018-05-06T20:28:03.709Z,5.57
2018-05-06T20:30:33.400Z,5.37
2018-05-06T20:33:03.140Z,5.70
2018-05-06T20:35:32.973Z,5.90
2018-05-06T20:38:02.602Z,6.33
2018-05-06T20:40:32.405Z,6.43
2018-05-06T20:43:02.085Z,6.67
2018-05-06T20:45:31.777Z,6.83
2018-05-06T20:48:01.486Z,7.50
2018-05-06T20:50:31.044Z,6.57
2018-05-06T20:53:00.811Z,7.07
2018-05-06T20:55:30.589Z,6.63
2018-05-06T20:58:00.266Z,6.60
2018-05-06T21:00:29.974Z,6.23
2018-05-06T21:02:59.772Z,6.43
2018-05-06T21:05:29.251Z,6.23
2018-05-06T21:07:58.902Z,6.70
2018-05-06T21:10:28.719Z,7.40
2018-05-06T21:12:58.528Z,6.63
2018-05-06T21:15:28.167Z,6.57
2018-05-06T21:18:01.726Z,6.50
2018-05-06T21:20:31.506Z,6.40
2018-05-06T21:23:01.136Z,6.23
2018-05-06T21:25:30.798Z,6.10
2018-05-06T21:28:00.591Z,7.00
2018-05-06T21:30:31.198Z,7.27
2018-05-06T21:33:00.832Z,6.77
2018-05-06T21:35:30.696Z,7.00
2018-05-06T21:38:00.343Z,6.73
2018-05-06T21:40:29.964Z,6.90
2018-05-06T21:42:59.704Z,6.77
2018-05-06T21:45:29.848Z,7.20
2018-05-06T21:47:59.443Z,6.70
2018-05-06T21:50:29.305Z,7.20
2018-05-06T21:52:58.985Z,7.10
2018-05-06T21:55:28.580Z,7.27
2018-05-06T21:57:58.231Z,7.40
2018-05-06T22:00:27.948Z,7.37
2018-05-06T22:02:57.610Z,6.87
2018-05-06T22:05:27.261Z,6.93
2018-05-06T22:07:57.032Z,7.73
2018-05-06T22:10:26.814Z,8.93
2018-05-06T22:12:56.645Z,6.83
2018-05-06T22:15:26.394Z,7.10
2018-05-06T22:17:56.175Z,6.97
2018-05-06T22:20:25.865Z,7.40
2018-05-06T22:22:55.605Z,7.50
2018-05-06T22:25:25.445Z,7.80
2018-05-06T22:27:55.248Z,7.63
2018-05-06T22:30:24.980Z,7.47
2018-05-06T22:32:54.813Z,6.77
2018-05-06T22:35:24.535Z,6.37
2018-05-06T22:37:54.200Z,6.70
2018-05-06T22:40:23.819Z,6.63
2018-05-06T22:42:53.633Z,6.40
2018-05-06T22:45:23.404Z,7.20
2018-05-06T22:47:52.916Z,6.40
2018-05-06T22:50:22.556Z,6.53
2018-05-06T22:52:52.279Z,6.50
2018-05-06T22:55:21.985Z,6.47
2018-05-06T22:57:51.698Z,6.10
2018-05-06T23:00:21.481Z,6.27
2018-05-06T23:02:51.145Z,6.53
2018-05-06T23:05:20.749Z,6.00
2018-05-06T23:07:50.728Z,5.83
2018-05-06T23:10:20.493Z,6.40
2018-05-06T23:12:50.083Z,6.07
2018-05-06T23:15:19.880Z,6.67
2018-05-06T23:17:49.582Z,5.93
2018-05-06T23:20:19.285Z,6.33
2018-05-06T23:22:48.966Z,5.73
2018-05-06T23:25:18.598Z,5.90
2018-05-06T23:27:48.214Z,5.70
2018-05-06T23:30:17.958Z,5.30
2018-05-06T23:32:47.626Z,5.47
2018-05-06T23:35:17.400Z,5.57
2018-05-06T23:37:47.140Z,5.27
2018-05-06T23:40:16.670Z,5.50
2018-05-06T23:42:46.350Z,5.60
2018-05-06T23:45:16.061Z,5.50
2018-05-06T23:47:45.626Z,5.80
2018-05-06T23:50:15.262Z,5.50
2018-05-06T23:52:45.008Z,5.80
2018-05-06T23:55:14.677Z,5.30
2018-05-06T23:57:44.564Z,5.57
